Metar z pełnej godziny Komunikat METAR ze strony awiacja.imgw.pl Metar G00 EPLB METAR EPLB 160700Z 28017KT 9999 FEW016 SCT043 10/06 Q0999 =